createdAt,value
2023-04-30T04:55:14.007Z,15.05
2023-04-30T05:00:18.499Z,15.30
2023-04-30T05:05:21.983Z,15.52
2023-04-30T05:10:26.845Z,13.40
2023-04-30T05:15:31.112Z,11.98
2023-04-30T05:20:34.605Z,12.88
2023-04-30T05:25:39.919Z,10.90
2023-04-30T05:30:43.362Z,10.90
2023-04-30T05:35:46.853Z,13.35
2023-04-30T05:40:51.744Z,13.15
2023-04-30T05:45:55.215Z,11.00
2023-04-30T05:50:58.657Z,11.90
2023-04-30T05:56:03.946Z,11.88
2023-04-30T06:01:11.009Z,16.60
2023-04-30T06:06:14.800Z,15.35
2023-04-30T06:11:19.628Z,9.98
2023-04-30T06:16:23.172Z,8.23
2023-04-30T06:21:26.897Z,13.25
2023-04-30T06:26:32.118Z,10.57
2023-04-30T06:31:36.210Z,9.63
2023-04-30T06:36:39.686Z,8.77
2023-04-30T06:41:44.716Z,18.73
2023-04-30T06:46:48.237Z,11.32
2023-04-30T06:51:51.617Z,14.07
2023-04-30T06:56:56.427Z,9.38
2023-04-30T07:01:59.911Z,11.63
2023-04-30T07:07:03.436Z,13.48
2023-04-30T07:12:08.920Z,9.38
2023-04-30T07:17:12.466Z,12.13
2023-04-30T07:22:40.835Z,10.90
2023-04-30T07:27:46.066Z,17.42
2023-04-30T07:32:50.581Z,13.07
2023-04-30T07:37:54.038Z,11.32
2023-04-30T07:42:59.095Z,11.93
2023-04-30T07:48:03.065Z,11.02
2023-04-30T07:53:09.397Z,10.10
2023-04-30T07:58:14.232Z,12.23
2023-04-30T08:03:20.084Z,7.30
2023-04-30T08:08:23.755Z,8.48
2023-04-30T08:13:28.638Z,7.50
2023-04-30T08:18:32.545Z,6.95
2023-04-30T08:23:36.051Z,7.10
2023-04-30T08:28:40.960Z,8.65
2023-04-30T08:33:44.709Z,9.73
2023-04-30T08:38:48.287Z,7.43
2023-04-30T08:43:54.724Z,6.97
2023-04-30T08:48:58.773Z,8.45
2023-04-30T08:54:02.233Z,7.60
2023-04-30T08:59:07.114Z,8.45
2023-04-30T09:04:10.771Z,6.82
2023-04-30T09:09:15.503Z,7.88
2023-04-30T09:14:27.251Z,10.82
2023-04-30T09:19:32.169Z,7.07
2023-04-30T09:24:48.076Z,8.18
2023-04-30T09:29:53.037Z,10.65
2023-04-30T09:34:57.235Z,4.63
2023-04-30T09:40:00.978Z,3.40
2023-04-30T09:45:08.155Z,6.72
2023-04-30T09:50:15.085Z,8.00
2023-04-30T09:55:19.547Z,7.35
2023-04-30T10:00:24.917Z,5.88
2023-04-30T10:05:28.949Z,7.25
2023-04-30T10:10:33.552Z,4.82
2023-04-30T10:15:41.298Z,7.53
2023-04-30T10:20:48.171Z,7.55
2023-04-30T10:25:52.956Z,5.40
2023-04-30T10:30:58.530Z,6.45
2023-04-30T10:36:06.592Z,4.20
2023-04-30T10:41:10.672Z,8.30
2023-04-30T10:46:23.804Z,9.88
2023-04-30T10:51:46.445Z,10.43
2023-04-30T10:56:52.849Z,8.48
2023-04-30T11:02:02.255Z,9.68
2023-04-30T11:07:12.226Z,7.07
2023-04-30T11:12:16.958Z,4.22
2023-04-30T11:17:26.271Z,5.20
2023-04-30T11:22:35.932Z,4.47
2023-04-30T11:27:43.124Z,5.03
2023-04-30T11:32:50.254Z,8.32
2023-04-30T11:37:57.301Z,5.78
2023-04-30T11:43:00.747Z,5.63
2023-04-30T11:48:06.173Z,3.65
2023-04-30T11:53:11.433Z,6.72
2023-04-30T11:58:15.046Z,5.80
2023-04-30T12:03:20.066Z,6.80
2023-04-30T12:08:24.186Z,4.55
2023-04-30T12:13:27.606Z,4.93
2023-04-30T12:18:34.570Z,4.63
2023-04-30T12:23:38.612Z,2.58
2023-04-30T12:28:42.098Z,3.97
2023-04-30T12:33:55.183Z,4.70
2023-04-30T12:44:21.227Z,7.28
2023-04-30T12:49:27.528Z,5.53
2023-04-30T12:54:32.793Z,9.02
2023-04-30T12:59:39.958Z,3.72
2023-04-30T13:04:45.633Z,3.65
2023-04-30T13:09:49.172Z,6.30
2023-04-30T13:14:52.858Z,6.63
2023-04-30T13:19:57.731Z,4.18
2023-04-30T13:25:01.145Z,6.15
2023-04-30T13:30:05.579Z,2.85
2023-04-30T13:35:11.840Z,4.20
2023-04-30T13:40:15.994Z,3.80
2023-04-30T13:45:19.567Z,5.65
2023-04-30T13:50:24.850Z,3.88
2023-04-30T13:55:28.442Z,5.18
2023-04-30T14:00:31.985Z,7.28
2023-04-30T14:05:37.454Z,3.25
2023-04-30T14:10:40.918Z,6.35
2023-04-30T14:15:44.370Z,5.13
2023-04-30T14:20:49.489Z,4.35
2023-04-30T14:25:54.202Z,5.95
2023-04-30T14:30:57.686Z,3.33
2023-04-30T14:36:02.924Z,4.20
2023-04-30T14:41:07.052Z,3.70
2023-04-30T14:46:11.820Z,3.30
2023-04-30T14:51:16.873Z,4.90
2023-04-30T14:56:20.970Z,4.28
2023-04-30T15:01:25.150Z,3.55
2023-04-30T15:06:31.798Z,3.70
2023-04-30T15:11:35.257Z,3.53
2023-04-30T15:16:39.391Z,4.43
2023-04-30T15:21:44.967Z,3.85
2023-04-30T15:26:51.185Z,4.00
2023-04-30T15:31:54.966Z,4.03
2023-04-30T15:37:00.064Z,5.50
2023-04-30T15:42:03.728Z,6.38
2023-04-30T15:47:07.616Z,3.60
2023-04-30T15:52:12.769Z,5.57
2023-04-30T15:57:16.230Z,3.42
2023-04-30T16:02:19.824Z,2.75
2023-04-30T16:07:24.794Z,4.95
2023-04-30T16:12:28.351Z,4.28
2023-04-30T16:17:32.669Z,5.85
2023-04-30T16:22:37.598Z,12.38
2023-04-30T16:27:41.281Z,4.93
2023-04-30T16:32:45.308Z,6.82
2023-04-30T16:37:50.173Z,2.45
2023-04-30T16:42:53.937Z,7.32
2023-04-30T16:47:57.660Z,9.95
2023-04-30T16:53:04.681Z,5.10
2023-04-30T16:58:08.365Z,5.10
2023-04-30T17:03:12.112Z,5.90
2023-04-30T17:08:17.274Z,6.57
2023-04-30T17:13:20.814Z,5.13
2023-04-30T17:18:24.486Z,8.15
2023-04-30T17:23:29.333Z,7.28
2023-04-30T17:28:34.055Z,8.98
2023-04-30T17:33:37.839Z,5.85
2023-04-30T17:38:43.018Z,6.43
2023-04-30T17:43:46.504Z,3.83
2023-04-30T17:48:49.912Z,6.82
2023-04-30T17:53:55.327Z,6.53
2023-04-30T17:58:59.906Z,6.55
2023-04-30T18:04:03.849Z,7.70
2023-04-30T18:09:08.770Z,7.05
2023-04-30T18:14:12.577Z,9.55
2023-04-30T18:19:18.092Z,7.72
2023-04-30T18:24:27.599Z,7.85
2023-04-30T18:29:30.975Z,13.02
2023-04-30T18:34:34.791Z,15.50
2023-04-30T18:39:39.577Z,23.80
2023-04-30T18:44:43.416Z,15.68
2023-04-30T18:49:47.084Z,14.88
2023-04-30T18:54:52.272Z,15.38
2023-04-30T18:59:56.301Z,23.13
2023-04-30T19:05:00.192Z,19.58
2023-04-30T19:10:05.683Z,12.50
2023-04-30T19:15:11.689Z,15.07
2023-04-30T19:20:16.097Z,13.18
2023-04-30T19:25:20.974Z,16.65
2023-04-30T19:30:24.529Z,17.42
2023-04-30T19:35:28.157Z,13.98
2023-04-30T19:40:32.893Z,20.38
2023-04-30T19:45:36.470Z,16.92
2023-04-30T19:50:42.688Z,17.73
2023-04-30T19:55:47.613Z,17.13
2023-04-30T20:00:51.039Z,20.52
2023-04-30T20:05:54.509Z,24.40
2023-04-30T20:11:00.761Z,19.58
2023-04-30T20:16:05.427Z,15.95
2023-04-30T20:21:10.009Z,16.73
2023-04-30T20:26:15.027Z,16.38
2023-04-30T20:31:18.896Z,16.05
2023-04-30T20:36:22.572Z,15.82
2023-04-30T20:41:28.545Z,14.75
2023-04-30T20:46:34.494Z,16.38
2023-04-30T20:51:39.242Z,13.93
2023-04-30T20:56:46.772Z,15.10
2023-04-30T21:01:50.268Z,15.25
2023-04-30T21:06:54.045Z,21.45
2023-04-30T21:11:59.521Z,30.23
2023-04-30T21:17:03.387Z,36.88
2023-04-30T21:22:06.871Z,49.40
2023-04-30T21:27:12.128Z,44.67
2023-04-30T21:32:15.496Z,50.40
2023-04-30T21:37:18.950Z,54.20
2023-04-30T21:42:23.797Z,47.13
2023-04-30T21:47:27.275Z,39.67
2023-04-30T21:52:31.499Z,45.47
2023-04-30T21:57:36.734Z,51.33
2023-04-30T22:02:40.261Z,57.15
2023-04-30T22:07:43.835Z,53.58
2023-04-30T22:12:48.923Z,52.10
2023-04-30T22:17:52.564Z,47.53
2023-04-30T22:22:55.985Z,38.75
2023-04-30T22:28:00.801Z,46.55
